sensor_id;sensor_type;location;lat;lon;timestamp;temperature;humidity
2425;DHT22;1223;49.010;8.426;2022-07-23T00:00:08;25.40;47.10
2425;DHT22;1223;49.010;8.426;2022-07-23T00:02:34;25.30;46.70
2425;DHT22;1223;49.010;8.426;2022-07-23T00:05:01;25.30;46.60
2425;DHT22;1223;49.010;8.426;2022-07-23T00:07:28;25.30;46.50
2425;DHT22;1223;49.010;8.426;2022-07-23T00:09:55;25.30;46.70
2425;DHT22;1223;49.010;8.426;2022-07-23T00:12:23;25.20;46.70
2425;DHT22;1223;49.010;8.426;2022-07-23T00:14:50;25.20;47.20
2425;DHT22;1223;49.010;8.426;2022-07-23T00:17:17;25.20;46.30
2425;DHT22;1223;49.010;8.426;2022-07-23T00:19:44;25.20;45.90
2425;DHT22;1223;49.010;8.426;2022-07-23T00:22:11;25.20;45.70
2425;DHT22;1223;49.010;8.426;2022-07-23T00:24:38;25.10;45.50
2425;DHT22;1223;49.010;8.426;2022-07-23T00:27:05;25.10;45.60
2425;DHT22;1223;49.010;8.426;2022-07-23T00:29:33;25.00;45.40
2425;DHT22;1223;49.010;8.426;2022-07-23T00:32:00;25.00;45.90
2425;DHT22;1223;49.010;8.426;2022-07-23T00:34:27;24.90;45.40
2425;DHT22;1223;49.010;8.426;2022-07-23T00:36:53;24.90;45.30
2425;DHT22;1223;49.010;8.426;2022-07-23T00:39:20;24.80;45.40
2425;DHT22;1223;49.010;8.426;2022-07-23T00:41:48;24.80;45.00
2425;DHT22;1223;49.010;8.426;2022-07-23T00:44:17;24.80;44.80
2425;DHT22;1223;49.010;8.426;2022-07-23T00:46:48;24.80;44.80
2425;DHT22;1223;49.010;8.426;2022-07-23T00:49:15;24.70;44.50
2425;DHT22;1223;49.010;8.426;2022-07-23T00:51:42;24.70;44.00
2425;DHT22;1223;49.010;8.426;2022-07-23T00:54:09;24.70;43.40
2425;DHT22;1223;49.010;8.426;2022-07-23T00:56:37;24.70;43.20
2425;DHT22;1223;49.010;8.426;2022-07-23T00:59:05;24.70;43.20
2425;DHT22;1223;49.010;8.426;2022-07-23T01:01:33;24.60;43.10
2425;DHT22;1223;49.010;8.426;2022-07-23T01:04:01;24.60;43.10
2425;DHT22;1223;49.010;8.426;2022-07-23T01:06:28;24.60;43.10
2425;DHT22;1223;49.010;8.426;2022-07-23T01:08:55;24.60;43.10
2425;DHT22;1223;49.010;8.426;2022-07-23T01:11:23;24.60;43.10
2425;DHT22;1223;49.010;8.426;2022-07-23T01:13:50;24.50;43.00
2425;DHT22;1223;49.010;8.426;2022-07-23T01:16:17;24.40;42.90
2425;DHT22;1223;49.010;8.426;2022-07-23T01:18:43;24.40;42.90
2425;DHT22;1223;49.010;8.426;2022-07-23T01:21:12;24.30;42.80
2425;DHT22;1223;49.010;8.426;2022-07-23T01:23:41;24.30;42.80
2425;DHT22;1223;49.010;8.426;2022-07-23T01:26:08;24.30;42.80
2425;DHT22;1223;49.010;8.426;2022-07-23T01:28:35;24.30;42.80
2425;DHT22;1223;49.010;8.426;2022-07-23T01:31:02;24.20;42.70
2425;DHT22;1223;49.010;8.426;2022-07-23T01:33:29;24.20;42.70
2425;DHT22;1223;49.010;8.426;2022-07-23T01:35:55;24.20;43.00
2425;DHT22;1223;49.010;8.426;2022-07-23T01:38:22;24.10;43.50
2425;DHT22;1223;49.010;8.426;2022-07-23T01:40:50;24.10;43.60
2425;DHT22;1223;49.010;8.426;2022-07-23T01:43:17;24.00;43.60
2425;DHT22;1223;49.010;8.426;2022-07-23T01:45:44;24.00;44.00
2425;DHT22;1223;49.010;8.426;2022-07-23T01:48:11;23.90;44.20
2425;DHT22;1223;49.010;8.426;2022-07-23T01:50:38;23.80;44.40
2425;DHT22;1223;49.010;8.426;2022-07-23T01:53:04;23.70;44.30
2425;DHT22;1223;49.010;8.426;2022-07-23T01:55:31;23.70;44.20
2425;DHT22;1223;49.010;8.426;2022-07-23T01:58:00;23.60;44.00
2425;DHT22;1223;49.010;8.426;2022-07-23T02:00:26;23.60;44.20
2425;DHT22;1223;49.010;8.426;2022-07-23T02:02:53;23.50;44.20
2425;DHT22;1223;49.010;8.426;2022-07-23T02:05:20;23.40;43.90
2425;DHT22;1223;49.010;8.426;2022-07-23T02:07:47;23.40;43.70
2425;DHT22;1223;49.010;8.426;2022-07-23T02:10:14;23.40;43.30
2425;DHT22;1223;49.010;8.426;2022-07-23T02:12:40;23.30;43.30
2425;DHT22;1223;49.010;8.426;2022-07-23T02:15:09;23.20;43.30
2425;DHT22;1223;49.010;8.426;2022-07-23T02:17:36;23.20;43.60
2425;DHT22;1223;49.010;8.426;2022-07-23T02:20:04;23.20;43.80
2425;DHT22;1223;49.010;8.426;2022-07-23T02:22:31;23.20;43.60
2425;DHT22;1223;49.010;8.426;2022-07-23T02:24:58;23.20;43.40
2425;DHT22;1223;49.010;8.426;2022-07-23T02:27:25;23.20;42.90
2425;DHT22;1223;49.010;8.426;2022-07-23T02:29:51;23.20;43.00
2425;DHT22;1223;49.010;8.426;2022-07-23T02:32:20;23.20;43.30
2425;DHT22;1223;49.010;8.426;2022-07-23T02:34:47;23.10;43.50
2425;DHT22;1223;49.010;8.426;2022-07-23T02:37:14;23.00;43.60
2425;DHT22;1223;49.010;8.426;2022-07-23T02:39:41;23.00;43.90
2425;DHT22;1223;49.010;8.426;2022-07-23T02:42:08;23.00;43.70
2425;DHT22;1223;49.010;8.426;2022-07-23T02:44:34;23.00;43.50
2425;DHT22;1223;49.010;8.426;2022-07-23T02:47:01;23.00;43.20
2425;DHT22;1223;49.010;8.426;2022-07-23T02:49:29;22.90;43.20
2425;DHT22;1223;49.010;8.426;2022-07-23T02:51:56;22.90;42.90
2425;DHT22;1223;49.010;8.426;2022-07-23T02:54:23;22.90;43.20
2425;DHT22;1223;49.010;8.426;2022-07-23T02:56:50;22.90;42.90
2425;DHT22;1223;49.010;8.426;2022-07-23T02:59:17;22.90;42.40
2425;DHT22;1223;49.010;8.426;2022-07-23T03:01:44;23.00;41.80
2425;DHT22;1223;49.010;8.426;2022-07-23T03:04:11;23.00;42.00
2425;DHT22;1223;49.010;8.426;2022-07-23T03:06:39;23.10;41.70
2425;DHT22;1223;49.010;8.426;2022-07-23T03:09:06;23.10;41.70
2425;DHT22;1223;49.010;8.426;2022-07-23T03:11:33;23.10;41.70
2425;DHT22;1223;49.010;8.426;2022-07-23T03:14:00;23.20;41.80
2425;DHT22;1223;49.010;8.426;2022-07-23T03:16:27;23.10;41.70
2425;DHT22;1223;49.010;8.426;2022-07-23T03:18:53;23.20;41.80
2425;DHT22;1223;49.010;8.426;2022-07-23T03:21:20;23.10;41.70
2425;DHT22;1223;49.010;8.426;2022-07-23T03:23:49;23.10;41.70
2425;DHT22;1223;49.010;8.426;2022-07-23T03:26:16;23.10;41.70
2425;DHT22;1223;49.010;8.426;2022-07-23T03:28:43;23.20;41.80
2425;DHT22;1223;49.010;8.426;2022-07-23T03:31:09;23.20;41.80
2425;DHT22;1223;49.010;8.426;2022-07-23T03:33:36;23.20;41.80
2425;DHT22;1223;49.010;8.426;2022-07-23T03:36:03;23.10;41.70
2425;DHT22;1223;49.010;8.426;2022-07-23T03:38:30;23.10;41.70
2425;DHT22;1223;49.010;8.426;2022-07-23T03:40:58;23.00;41.60
2425;DHT22;1223;49.010;8.426;2022-07-23T03:43:25;22.90;41.50
2425;DHT22;1223;49.010;8.426;2022-07-23T03:45:52;22.80;41.40
2425;DHT22;1223;49.010;8.426;2022-07-23T03:48:19;22.90;41.50
2425;DHT22;1223;49.010;8.426;2022-07-23T03:50:47;22.80;41.40
2425;DHT22;1223;49.010;8.426;2022-07-23T03:53:13;22.90;41.50
2425;DHT22;1223;49.010;8.426;2022-07-23T03:55:40;22.90;41.50
2425;DHT22;1223;49.010;8.426;2022-07-23T03:58:08;22.90;41.50
2425;DHT22;1223;49.010;8.426;2022-07-23T04:00:35;22.80;41.40
2425;DHT22;1223;49.010;8.426;2022-07-23T04:03:02;22.80;41.40
2425;DHT22;1223;49.010;8.426;2022-07-23T04:05:29;22.80;41.40
2425;DHT22;1223;49.010;8.426;2022-07-23T04:07:56;22.80;41.80
2425;DHT22;1223;49.010;8.426;2022-07-23T04:10:22;22.80;41.60
2425;DHT22;1223;49.010;8.426;2022-07-23T04:12:49;22.80;42.10
2425;DHT22;1223;49.010;8.426;2022-07-23T04:15:17;22.80;41.80
2425;DHT22;1223;49.010;8.426;2022-07-23T04:17:44;22.80;41.40
2425;DHT22;1223;49.010;8.426;2022-07-23T04:20:12;22.90;41.50
2425;DHT22;1223;49.010;8.426;2022-07-23T04:22:39;22.90;41.50
2425;DHT22;1223;49.010;8.426;2022-07-23T04:25:07;22.90;41.50
2425;DHT22;1223;49.010;8.426;2022-07-23T04:27:33;22.90;41.50
2425;DHT22;1223;49.010;8.426;2022-07-23T04:30:00;22.90;41.60
2425;DHT22;1223;49.010;8.426;2022-07-23T04:32:28;22.90;41.50
2425;DHT22;1223;49.010;8.426;2022-07-23T04:34:55;22.90;42.10
2425;DHT22;1223;49.010;8.426;2022-07-23T04:37:22;22.90;43.00
2425;DHT22;1223;49.010;8.426;2022-07-23T04:39:49;22.90;42.60
2425;DHT22;1223;49.010;8.426;2022-07-23T04:42:16;22.80;42.70
2425;DHT22;1223;49.010;8.426;2022-07-23T04:44:43;22.80;43.30
2425;DHT22;1223;49.010;8.426;2022-07-23T04:47:09;22.80;43.50
2425;DHT22;1223;49.010;8.426;2022-07-23T04:49:38;22.70;44.00
2425;DHT22;1223;49.010;8.426;2022-07-23T04:52:05;22.70;45.10
2425;DHT22;1223;49.010;8.426;2022-07-23T04:54:32;22.70;45.60
2425;DHT22;1223;49.010;8.426;2022-07-23T04:56:58;22.60;46.10
2425;DHT22;1223;49.010;8.426;2022-07-23T04:59:25;22.60;46.40
2425;DHT22;1223;49.010;8.426;2022-07-23T05:01:52;22.50;46.30
2425;DHT22;1223;49.010;8.426;2022-07-23T05:04:19;22.60;45.80
2425;DHT22;1223;49.010;8.426;2022-07-23T05:06:47;22.50;46.20
2425;DHT22;1223;49.010;8.426;2022-07-23T05:09:14;22.50;46.10
2425;DHT22;1223;49.010;8.426;2022-07-23T05:11:41;22.50;46.20
2425;DHT22;1223;49.010;8.426;2022-07-23T05:14:08;22.50;46.70
2425;DHT22;1223;49.010;8.426;2022-07-23T05:16:37;22.50;47.00
2425;DHT22;1223;49.010;8.426;2022-07-23T05:19:04;22.40;47.00
2425;DHT22;1223;49.010;8.426;2022-07-23T05:21:31;22.50;46.70
2425;DHT22;1223;49.010;8.426;2022-07-23T05:24:00;22.60;46.60
2425;DHT22;1223;49.010;8.426;2022-07-23T05:26:27;22.60;46.70
2425;DHT22;1223;49.010;8.426;2022-07-23T05:28:53;22.70;46.90
2425;DHT22;1223;49.010;8.426;2022-07-23T05:31:20;22.80;46.70
2425;DHT22;1223;49.010;8.426;2022-07-23T05:33:47;23.00;46.00
2425;DHT22;1223;49.010;8.426;2022-07-23T05:36:17;23.20;45.20
2425;DHT22;1223;49.010;8.426;2022-07-23T05:38:44;23.50;44.40
2425;DHT22;1223;49.010;8.426;2022-07-23T05:41:12;23.70;43.30
2425;DHT22;1223;49.010;8.426;2022-07-23T05:43:39;23.90;42.50
2425;DHT22;1223;49.010;8.426;2022-07-23T05:46:06;24.40;42.90
2425;DHT22;1223;49.010;8.426;2022-07-23T05:48:33;25.00;40.60
2425;DHT22;1223;49.010;8.426;2022-07-23T05:51:00;25.30;39.40
2425;DHT22;1223;49.010;8.426;2022-07-23T05:53:29;25.20;39.30
2425;DHT22;1223;49.010;8.426;2022-07-23T05:55:56;24.90;39.70
2425;DHT22;1223;49.010;8.426;2022-07-23T05:58:24;24.70;41.10
2425;DHT22;1223;49.010;8.426;2022-07-23T06:00:50;24.40;43.00
2425;DHT22;1223;49.010;8.426;2022-07-23T06:03:17;24.30;42.80
2425;DHT22;1223;49.010;8.426;2022-07-23T06:05:45;24.10;42.60
2425;DHT22;1223;49.010;8.426;2022-07-23T06:08:12;23.90;44.40
2425;DHT22;1223;49.010;8.426;2022-07-23T06:10:39;23.80;46.30
2425;DHT22;1223;49.010;8.426;2022-07-23T06:13:06;23.80;45.60
2425;DHT22;1223;49.010;8.426;2022-07-23T06:15:34;23.80;46.70
2425;DHT22;1223;49.010;8.426;2022-07-23T06:18:01;23.90;48.10
2425;DHT22;1223;49.010;8.426;2022-07-23T06:20:28;23.90;50.00
2425;DHT22;1223;49.010;8.426;2022-07-23T06:22:55;24.00;48.90
2425;DHT22;1223;49.010;8.426;2022-07-23T06:25:22;23.90;48.20
2425;DHT22;1223;49.010;8.426;2022-07-23T06:27:49;23.80;49.00
2425;DHT22;1223;49.010;8.426;2022-07-23T06:30:19;23.80;49.50
2425;DHT22;1223;49.010;8.426;2022-07-23T06:32:47;23.70;49.30
2425;DHT22;1223;49.010;8.426;2022-07-23T06:35:15;23.60;49.40
2425;DHT22;1223;49.010;8.426;2022-07-23T06:37:42;23.60;48.60
2425;DHT22;1223;49.010;8.426;2022-07-23T06:40:10;23.80;48.00
2425;DHT22;1223;49.010;8.426;2022-07-23T06:42:38;24.00;47.60
2425;DHT22;1223;49.010;8.426;2022-07-23T06:45:06;24.10;46.90
2425;DHT22;1223;49.010;8.426;2022-07-23T06:47:33;24.20;46.80
2425;DHT22;1223;49.010;8.426;2022-07-23T06:50:02;24.30;46.60
2425;DHT22;1223;49.010;8.426;2022-07-23T06:52:29;24.20;47.40
2425;DHT22;1223;49.010;8.426;2022-07-23T06:54:55;24.30;46.80
2425;DHT22;1223;49.010;8.426;2022-07-23T06:57:22;24.50;46.40
2425;DHT22;1223;49.010;8.426;2022-07-23T06:59:51;24.50;45.80
2425;DHT22;1223;49.010;8.426;2022-07-23T07:02:17;24.70;45.30
2425;DHT22;1223;49.010;8.426;2022-07-23T07:04:44;24.90;45.00
2425;DHT22;1223;49.010;8.426;2022-07-23T07:07:13;25.20;43.60
2425;DHT22;1223;49.010;8.426;2022-07-23T07:09:40;25.40;43.80
2425;DHT22;1223;49.010;8.426;2022-07-23T07:12:07;25.30;43.70
2425;DHT22;1223;49.010;8.426;2022-07-23T07:14:34;25.10;43.50
2425;DHT22;1223;49.010;8.426;2022-07-23T07:17:01;24.90;44.60
2425;DHT22;1223;49.010;8.426;2022-07-23T07:19:27;24.80;44.80
2425;DHT22;1223;49.010;8.426;2022-07-23T07:21:54;24.70;46.10
2425;DHT22;1223;49.010;8.426;2022-07-23T07:24:23;24.30;47.70
2425;DHT22;1223;49.010;8.426;2022-07-23T07:26:49;24.10;49.30
2425;DHT22;1223;49.010;8.426;2022-07-23T07:29:16;24.20;50.70
2425;DHT22;1223;49.010;8.426;2022-07-23T07:31:43;24.40;50.30
2425;DHT22;1223;49.010;8.426;2022-07-23T07:34:10;24.60;49.00
2425;DHT22;1223;49.010;8.426;2022-07-23T07:36:37;24.80;48.10
2425;DHT22;1223;49.010;8.426;2022-07-23T07:39:04;25.00;46.90
2425;DHT22;1223;49.010;8.426;2022-07-23T07:41:33;25.10;46.20
2425;DHT22;1223;49.010;8.426;2022-07-23T07:44:00;25.10;46.00
2425;DHT22;1223;49.010;8.426;2022-07-23T07:46:27;24.80;47.80
2425;DHT22;1223;49.010;8.426;2022-07-23T07:48:54;24.80;48.00
2425;DHT22;1223;49.010;8.426;2022-07-23T07:51:21;24.80;48.30
2425;DHT22;1223;49.010;8.426;2022-07-23T07:53:48;24.70;47.70
2425;DHT22;1223;49.010;8.426;2022-07-23T07:56:14;24.50;47.00
2425;DHT22;1223;49.010;8.426;2022-07-23T07:58:43;24.80;46.70
2425;DHT22;1223;49.010;8.426;2022-07-23T08:01:09;25.00;46.10
2425;DHT22;1223;49.010;8.426;2022-07-23T08:03:36;25.30;45.00
2425;DHT22;1223;49.010;8.426;2022-07-23T08:06:03;25.50;43.90
2425;DHT22;1223;49.010;8.426;2022-07-23T08:08:30;25.60;42.80
2425;DHT22;1223;49.010;8.426;2022-07-23T08:10:57;25.40;43.80
2425;DHT22;1223;49.010;8.426;2022-07-23T08:13:24;25.40;43.80
2425;DHT22;1223;49.010;8.426;2022-07-23T08:15:52;25.60;43.90
2425;DHT22;1223;49.010;8.426;2022-07-23T08:18:19;25.70;44.00
2425;DHT22;1223;49.010;8.426;2022-07-23T08:20:46;26.00;43.50
2425;DHT22;1223;49.010;8.426;2022-07-23T08:23:13;26.00;44.20
2425;DHT22;1223;49.010;8.426;2022-07-23T08:25:41;26.20;44.30
2425;DHT22;1223;49.010;8.426;2022-07-23T08:28:09;26.30;44.40
2425;DHT22;1223;49.010;8.426;2022-07-23T08:30:38;26.30;44.40
2425;DHT22;1223;49.010;8.426;2022-07-23T08:33:08;26.20;44.30
2425;DHT22;1223;49.010;8.426;2022-07-23T08:35:37;26.40;44.30
2425;DHT22;1223;49.010;8.426;2022-07-23T08:38:06;26.30;44.40
2425;DHT22;1223;49.010;8.426;2022-07-23T08:40:34;26.40;44.50
2425;DHT22;1223;49.010;8.426;2022-07-23T08:43:05;26.50;44.50
2425;DHT22;1223;49.010;8.426;2022-07-23T08:45:36;26.60;44.10
2425;DHT22;1223;49.010;8.426;2022-07-23T08:48:08;26.90;42.30
2425;DHT22;1223;49.010;8.426;2022-07-23T08:50:37;27.10;41.60
2425;DHT22;1223;49.010;8.426;2022-07-23T08:53:07;27.20;41.00
2425;DHT22;1223;49.010;8.426;2022-07-23T08:55:34;27.40;40.10
2425;DHT22;1223;49.010;8.426;2022-07-23T08:58:01;27.40;39.90
2425;DHT22;1223;49.010;8.426;2022-07-23T09:00:29;27.40;39.00
2425;DHT22;1223;49.010;8.426;2022-07-23T09:02:55;27.40;39.10
2425;DHT22;1223;49.010;8.426;2022-07-23T09:05:24;27.50;38.50
2425;DHT22;1223;49.010;8.426;2022-07-23T09:08:09;27.60;38.50
2425;DHT22;1223;49.010;8.426;2022-07-23T09:10:51;28.10;37.00
2425;DHT22;1223;49.010;8.426;2022-07-23T09:13:27;28.80;35.80
2425;DHT22;1223;49.010;8.426;2022-07-23T09:15:56;29.10;35.10
2425;DHT22;1223;49.010;8.426;2022-07-23T09:18:31;29.00;34.40
2425;DHT22;1223;49.010;8.426;2022-07-23T09:21:18;28.90;34.50
2425;DHT22;1223;49.010;8.426;2022-07-23T09:23:48;28.70;35.00
2425;DHT22;1223;49.010;8.426;2022-07-23T09:26:20;28.60;34.90
2425;DHT22;1223;49.010;8.426;2022-07-23T09:28:51;28.50;34.80
2425;DHT22;1223;49.010;8.426;2022-07-23T09:31:18;28.50;34.60
2425;DHT22;1223;49.010;8.426;2022-07-23T09:33:45;28.40;34.90
2425;DHT22;1223;49.010;8.426;2022-07-23T09:36:13;28.40;34.80
2425;DHT22;1223;49.010;8.426;2022-07-23T09:38:48;28.70;34.10
2425;DHT22;1223;49.010;8.426;2022-07-23T09:41:16;28.80;33.00
2425;DHT22;1223;49.010;8.426;2022-07-23T09:43:43;28.60;33.30
2425;DHT22;1223;49.010;8.426;2022-07-23T09:46:18;28.70;32.80
2425;DHT22;1223;49.010;8.426;2022-07-23T09:48:45;28.80;33.20
2425;DHT22;1223;49.010;8.426;2022-07-23T09:51:13;29.20;33.00
2425;DHT22;1223;49.010;8.426;2022-07-23T09:53:42;29.50;32.00
2425;DHT22;1223;49.010;8.426;2022-07-23T09:56:09;29.60;31.70
2425;DHT22;1223;49.010;8.426;2022-07-23T09:58:39;29.40;30.90
2425;DHT22;1223;49.010;8.426;2022-07-23T10:01:13;29.20;30.80
2425;DHT22;1223;49.010;8.426;2022-07-23T10:03:40;29.30;30.90
2425;DHT22;1223;49.010;8.426;2022-07-23T10:06:08;29.40;30.70
2425;DHT22;1223;49.010;8.426;2022-07-23T10:08:39;28.00;32.90
2425;DHT22;1223;49.010;8.426;2022-07-23T10:11:07;28.00;33.40
2425;DHT22;1223;49.010;8.426;2022-07-23T10:13:36;28.50;31.70
2425;DHT22;1223;49.010;8.426;2022-07-23T10:16:16;28.90;30.10
2425;DHT22;1223;49.010;8.426;2022-07-23T10:18:43;29.00;28.40
2425;DHT22;1223;49.010;8.426;2022-07-23T10:21:10;28.60;29.90
2425;DHT22;1223;49.010;8.426;2022-07-23T10:23:44;28.80;30.10
2425;DHT22;1223;49.010;8.426;2022-07-23T10:26:19;29.00;29.60
2425;DHT22;1223;49.010;8.426;2022-07-23T10:29:00;29.00;29.90
2425;DHT22;1223;49.010;8.426;2022-07-23T10:31:37;29.20;29.70
2425;DHT22;1223;49.010;8.426;2022-07-23T10:34:12;29.50;27.90
2425;DHT22;1223;49.010;8.426;2022-07-23T10:36:46;29.60;28.40
2425;DHT22;1223;49.010;8.426;2022-07-23T10:39:19;29.90;28.20
2425;DHT22;1223;49.010;8.426;2022-07-23T10:41:49;30.00;27.00
2425;DHT22;1223;49.010;8.426;2022-07-23T10:44:19;29.60;27.40
2425;DHT22;1223;49.010;8.426;2022-07-23T10:46:55;28.90;29.00
2425;DHT22;1223;49.010;8.426;2022-07-23T10:49:35;28.60;29.20
2425;DHT22;1223;49.010;8.426;2022-07-23T10:52:32;28.90;29.30
2425;DHT22;1223;49.010;8.426;2022-07-23T10:58:01;29.10;29.90
2425;DHT22;1223;49.010;8.426;2022-07-23T11:00:29;29.00;28.90
2425;DHT22;1223;49.010;8.426;2022-07-23T11:02:58;29.30;28.40
2425;DHT22;1223;49.010;8.426;2022-07-23T11:05:26;29.40;29.10
2425;DHT22;1223;49.010;8.426;2022-07-23T11:08:16;29.30;29.70
2425;DHT22;1223;49.010;8.426;2022-07-23T11:10:50;29.20;29.20
2425;DHT22;1223;49.010;8.426;2022-07-23T11:16:26;29.40;26.70
2425;DHT22;1223;49.010;8.426;2022-07-23T11:19:05;29.50;26.80
2425;DHT22;1223;49.010;8.426;2022-07-23T11:21:49;29.50;26.80
2425;DHT22;1223;49.010;8.426;2022-07-23T11:24:18;29.30;26.60
2425;DHT22;1223;49.010;8.426;2022-07-23T11:26:51;29.40;27.00
2425;DHT22;1223;49.010;8.426;2022-07-23T11:29:42;29.30;27.00
2425;DHT22;1223;49.010;8.426;2022-07-23T11:32:27;29.40;27.10
2425;DHT22;1223;49.010;8.426;2022-07-23T11:34:55;29.20;27.70
2425;DHT22;1223;49.010;8.426;2022-07-23T11:37:36;29.50;26.80
2425;DHT22;1223;49.010;8.426;2022-07-23T11:40:06;29.70;26.90
2425;DHT22;1223;49.010;8.426;2022-07-23T11:42:35;29.80;26.90
2425;DHT22;1223;49.010;8.426;2022-07-23T11:45:05;29.90;27.00
2425;DHT22;1223;49.010;8.426;2022-07-23T11:47:32;30.00;27.00
2425;DHT22;1223;49.010;8.426;2022-07-23T11:50:01;30.00;27.00
2425;DHT22;1223;49.010;8.426;2022-07-23T11:52:28;30.00;27.00
2425;DHT22;1223;49.010;8.426;2022-07-23T11:54:57;30.20;27.10
2425;DHT22;1223;49.010;8.426;2022-07-23T11:57:29;30.20;27.10
2425;DHT22;1223;49.010;8.426;2022-07-23T11:59:58;30.60;27.40
2425;DHT22;1223;49.010;8.426;2022-07-23T12:02:28;30.70;27.00
2425;DHT22;1223;49.010;8.426;2022-07-23T12:04:55;30.80;27.40
2425;DHT22;1223;49.010;8.426;2022-07-23T12:07:27;30.90;27.10
2425;DHT22;1223;49.010;8.426;2022-07-23T12:09:55;31.30;26.00
2425;DHT22;1223;49.010;8.426;2022-07-23T12:12:23;31.50;24.90
2425;DHT22;1223;49.010;8.426;2022-07-23T12:14:52;31.80;25.00
2425;DHT22;1223;49.010;8.426;2022-07-23T12:17:19;32.00;24.70
2425;DHT22;1223;49.010;8.426;2022-07-23T12:19:49;31.60;24.30
2425;DHT22;1223;49.010;8.426;2022-07-23T12:22:16;31.20;24.30
2425;DHT22;1223;49.010;8.426;2022-07-23T12:25:00;30.80;24.70
2425;DHT22;1223;49.010;8.426;2022-07-23T12:27:28;30.80;25.40
2425;DHT22;1223;49.010;8.426;2022-07-23T12:29:55;31.10;25.10
2425;DHT22;1223;49.010;8.426;2022-07-23T12:32:24;31.40;25.10
2425;DHT22;1223;49.010;8.426;2022-07-23T12:35:04;31.20;25.90
2425;DHT22;1223;49.010;8.426;2022-07-23T12:37:33;31.20;25.60
2425;DHT22;1223;49.010;8.426;2022-07-23T12:40:22;31.00;26.00
2425;DHT22;1223;49.010;8.426;2022-07-23T12:42:52;31.20;24.60
2425;DHT22;1223;49.010;8.426;2022-07-23T12:45:19;31.30;23.80
2425;DHT22;1223;49.010;8.426;2022-07-23T12:48:15;31.00;24.40
2425;DHT22;1223;49.010;8.426;2022-07-23T12:50:49;31.10;24.50
2425;DHT22;1223;49.010;8.426;2022-07-23T12:53:17;31.10;24.50
2425;DHT22;1223;49.010;8.426;2022-07-23T12:55:45;31.10;25.10
2425;DHT22;1223;49.010;8.426;2022-07-23T12:58:14;31.10;24.80
2425;DHT22;1223;49.010;8.426;2022-07-23T13:00:53;31.50;24.00
2425;DHT22;1223;49.010;8.426;2022-07-23T13:03:24;31.60;23.70
2425;DHT22;1223;49.010;8.426;2022-07-23T13:05:52;31.20;24.60
2425;DHT22;1223;49.010;8.426;2022-07-23T13:08:20;31.10;24.50
2425;DHT22;1223;49.010;8.426;2022-07-23T13:10:47;30.80;24.80
2425;DHT22;1223;49.010;8.426;2022-07-23T13:13:17;30.80;24.90
2425;DHT22;1223;49.010;8.426;2022-07-23T13:15:44;30.90;24.90
2425;DHT22;1223;49.010;8.426;2022-07-23T13:18:11;30.70;26.60
2425;DHT22;1223;49.010;8.426;2022-07-23T13:20:38;30.80;26.70
2425;DHT22;1223;49.010;8.426;2022-07-23T13:23:07;31.00;24.60
2425;DHT22;1223;49.010;8.426;2022-07-23T13:25:34;31.30;24.00
2425;DHT22;1223;49.010;8.426;2022-07-23T13:28:04;31.50;24.10
2425;DHT22;1223;49.010;8.426;2022-07-23T13:30:31;31.40;24.20
2425;DHT22;1223;49.010;8.426;2022-07-23T13:32:58;31.70;23.70
2425;DHT22;1223;49.010;8.426;2022-07-23T13:35:25;31.80;23.80
2425;DHT22;1223;49.010;8.426;2022-07-23T13:37:52;31.70;23.70
2425;DHT22;1223;49.010;8.426;2022-07-23T13:40:21;31.50;23.90
2425;DHT22;1223;49.010;8.426;2022-07-23T13:42:48;31.80;23.70
2425;DHT22;1223;49.010;8.426;2022-07-23T13:45:15;32.00;22.80
2425;DHT22;1223;49.010;8.426;2022-07-23T13:47:42;32.00;23.00
2425;DHT22;1223;49.010;8.426;2022-07-23T13:50:09;32.20;22.50
2425;DHT22;1223;49.010;8.426;2022-07-23T13:52:36;32.50;21.90
2425;DHT22;1223;49.010;8.426;2022-07-23T13:55:05;32.50;22.60
2425;DHT22;1223;49.010;8.426;2022-07-23T13:57:33;32.90;21.60
2425;DHT22;1223;49.010;8.426;2022-07-23T14:00:00;32.80;21.50
2425;DHT22;1223;49.010;8.426;2022-07-23T14:02:28;32.50;22.00
2425;DHT22;1223;49.010;8.426;2022-07-23T14:04:55;32.10;22.80
2425;DHT22;1223;49.010;8.426;2022-07-23T14:07:22;31.60;23.10
2425;DHT22;1223;49.010;8.426;2022-07-23T14:09:49;31.80;23.30
2425;DHT22;1223;49.010;8.426;2022-07-23T14:12:16;31.60;23.20
2425;DHT22;1223;49.010;8.426;2022-07-23T14:14:45;31.70;22.40
2425;DHT22;1223;49.010;8.426;2022-07-23T14:17:12;32.20;21.80
2425;DHT22;1223;49.010;8.426;2022-07-23T14:19:40;32.50;21.20
2425;DHT22;1223;49.010;8.426;2022-07-23T14:22:07;32.60;21.10
2425;DHT22;1223;49.010;8.426;2022-07-23T14:24:35;32.50;21.10
2425;DHT22;1223;49.010;8.426;2022-07-23T14:27:05;32.40;21.40
2425;DHT22;1223;49.010;8.426;2022-07-23T14:29:33;32.30;21.40
2425;DHT22;1223;49.010;8.426;2022-07-23T14:32:01;32.40;21.30
2425;DHT22;1223;49.010;8.426;2022-07-23T14:34:28;32.50;21.10
2425;DHT22;1223;49.010;8.426;2022-07-23T14:36:55;32.80;20.00
2425;DHT22;1223;49.010;8.426;2022-07-23T14:39:22;33.00;20.20
2425;DHT22;1223;49.010;8.426;2022-07-23T14:41:49;32.90;20.10
2425;DHT22;1223;49.010;8.426;2022-07-23T14:44:16;32.50;20.60
2425;DHT22;1223;49.010;8.426;2022-07-23T14:46:43;32.00;21.80
2425;DHT22;1223;49.010;8.426;2022-07-23T14:49:11;31.80;22.20
2425;DHT22;1223;49.010;8.426;2022-07-23T14:51:38;31.60;22.40
2425;DHT22;1223;49.010;8.426;2022-07-23T14:54:06;31.60;22.10
2425;DHT22;1223;49.010;8.426;2022-07-23T14:56:33;31.20;23.00
2425;DHT22;1223;49.010;8.426;2022-07-23T14:59:01;31.10;23.00
2425;DHT22;1223;49.010;8.426;2022-07-23T15:01:28;30.80;23.40
2425;DHT22;1223;49.010;8.426;2022-07-23T15:03:55;30.60;24.90
2425;DHT22;1223;49.010;8.426;2022-07-23T15:06:23;30.70;24.40
2425;DHT22;1223;49.010;8.426;2022-07-23T15:08:50;30.90;23.90
2425;DHT22;1223;49.010;8.426;2022-07-23T15:11:17;31.20;23.50
2425;DHT22;1223;49.010;8.426;2022-07-23T15:13:44;31.00;24.00
2425;DHT22;1223;49.010;8.426;2022-07-23T15:16:11;31.20;23.20
2425;DHT22;1223;49.010;8.426;2022-07-23T15:18:39;31.10;23.40
2425;DHT22;1223;49.010;8.426;2022-07-23T15:21:05;31.20;23.20
2425;DHT22;1223;49.010;8.426;2022-07-23T15:23:34;31.20;23.50
2425;DHT22;1223;49.010;8.426;2022-07-23T15:26:03;31.10;23.40
2425;DHT22;1223;49.010;8.426;2022-07-23T15:28:32;30.90;23.60
2425;DHT22;1223;49.010;8.426;2022-07-23T15:30:59;30.90;23.60
2425;DHT22;1223;49.010;8.426;2022-07-23T15:33:27;30.90;23.80
2425;DHT22;1223;49.010;8.426;2022-07-23T15:35:53;30.70;23.80
2425;DHT22;1223;49.010;8.426;2022-07-23T15:38:22;30.80;23.90
2425;DHT22;1223;49.010;8.426;2022-07-23T15:40:50;31.10;23.40
2425;DHT22;1223;49.010;8.426;2022-07-23T15:43:17;30.90;25.40
2425;DHT22;1223;49.010;8.426;2022-07-23T15:45:45;30.50;26.90
2425;DHT22;1223;49.010;8.426;2022-07-23T15:48:12;30.20;27.10
2425;DHT22;1223;49.010;8.426;2022-07-23T15:50:39;30.10;27.10
2425;DHT22;1223;49.010;8.426;2022-07-23T15:53:06;30.10;27.00
2425;DHT22;1223;49.010;8.426;2022-07-23T15:55:34;30.10;27.10
2425;DHT22;1223;49.010;8.426;2022-07-23T15:58:02;30.00;27.00
2425;DHT22;1223;49.010;8.426;2022-07-23T16:00:29;30.00;27.00
2425;DHT22;1223;49.010;8.426;2022-07-23T16:02:56;30.00;27.00
2425;DHT22;1223;49.010;8.426;2022-07-23T16:05:23;30.00;27.00
2425;DHT22;1223;49.010;8.426;2022-07-23T16:07:50;29.90;27.00
2425;DHT22;1223;49.010;8.426;2022-07-23T16:10:17;30.10;27.00
2425;DHT22;1223;49.010;8.426;2022-07-23T16:12:44;30.30;27.20
2425;DHT22;1223;49.010;8.426;2022-07-23T16:15:12;30.20;27.10